Time;durP1;ratioP1;P1;durP2;ratioP2;P2;SDS_P1;SDS_P2;PMS_P1;PMS_P2;Temp;Humidity;BMP_temperature;BMP_pressure;BME280_temperature;BME280_humidity;BME280_pressure;Samples;Min_cycle;Max_cycle;Signal;HPM_P1;HPM_P2
2021/09/08 00:00:25;;;;;;;28.83;22.90;;;19.10;76.60;;;;;;5024137;28;20030;-72
2021/09/08 00:02:51;;;;;;;28.67;22.90;;;19.00;76.80;;;;;;5027680;28;20473;-70
2021/09/08 00:05:17;;;;;;;29.70;22.80;;;19.00;76.90;;;;;;5024521;28;20541;-70
2021/09/08 00:07:43;;;;;;;31.20;22.80;;;18.90;77.20;;;;;;5020544;28;20030;-71
2021/09/08 00:10:09;;;;;;;31.38;23.70;;;18.80;77.40;;;;;;5024379;28;20041;-70
2021/09/08 00:12:37;;;;;;;31.98;24.77;;;18.80;77.50;;;;;;5023727;28;20033;-70
2021/09/08 00:15:04;;;;;;;29.52;23.92;;;18.70;77.70;;;;;;5026011;28;20394;-71
2021/09/08 00:17:30;;;;;;;29.40;23.40;;;18.70;77.80;;;;;;5027935;28;20040;-70
2021/09/08 00:19:55;;;;;;;30.27;24.05;;;18.60;78.10;;;;;;5004010;28;20030;-70
2021/09/08 00:22:21;;;;;;;24.90;21.10;;;18.60;78.30;;;;;;5027426;28;20041;-70
2021/09/08 00:24:47;;;;;;;29.50;22.75;;;18.60;78.30;;;;;;5026518;28;20046;-70
2021/09/08 00:27:12;;;;;;;26.20;23.15;;;18.60;78.30;;;;;;5027638;28;20403;-70
2021/09/08 00:29:38;;;;;;;25.95;21.17;;;18.60;78.10;;;;;;5019283;28;20064;-71
2021/09/08 00:32:04;;;;;;;27.15;22.25;;;18.60;78.10;;;;;;5026189;28;20370;-71
2021/09/08 00:34:31;;;;;;;29.95;23.40;;;18.60;78.00;;;;;;5032088;28;20092;-70
2021/09/08 00:36:56;;;;;;;26.45;22.38;;;18.60;78.00;;;;;;5015017;28;20046;-73
2021/09/08 00:39:22;;;;;;;25.25;21.42;;;18.60;77.90;;;;;;5006521;28;20145;-70
2021/09/08 00:41:48;;;;;;;29.35;23.67;;;18.60;78.00;;;;;;5006235;28;20349;-71
2021/09/08 00:44:14;;;;;;;27.60;23.33;;;18.70;77.90;;;;;;5009800;28;20073;-71
2021/09/08 00:46:44;;;;;;;27.17;23.15;;;18.60;77.90;;;;;;5015072;28;20026;-70
2021/09/08 00:49:10;;;;;;;28.98;23.10;;;18.60;78.00;;;;;;5008077;28;20033;-70
2021/09/08 00:51:37;;;;;;;29.70;23.45;;;18.60;77.90;;;;;;5014865;28;20041;-70
2021/09/08 00:54:06;;;;;;;30.60;24.13;;;18.60;78.00;;;;;;5013839;28;20029;-71
2021/09/08 00:56:32;;;;;;;28.08;23.90;;;18.50;78.10;;;;;;5017954;28;20095;-72
2021/09/08 00:58:58;;;;;;;29.83;25.08;;;18.50;78.20;;;;;;5025296;28;20037;-70
2021/09/08 01:01:24;;;;;;;32.95;24.63;;;18.50;78.20;;;;;;5026221;28;20032;-70
2021/09/08 01:03:50;;;;;;;30.80;24.10;;;18.50;78.20;;;;;;5027232;28;20096;-70
2021/09/08 01:06:16;;;;;;;29.33;24.98;;;18.50;78.30;;;;;;5024810;28;20037;-70
2021/09/08 01:08:42;;;;;;;31.27;24.27;;;18.50;78.30;;;;;;5024209;28;20065;-70
2021/09/08 01:11:08;;;;;;;30.75;24.45;;;18.40;78.20;;;;;;5023030;28;20118;-70
2021/09/08 01:13:34;;;;;;;30.20;25.20;;;18.40;78.30;;;;;;5026845;28;20412;-70
2021/09/08 01:16:02;;;;;;;30.60;25.08;;;18.40;78.50;;;;;;5030436;28;20038;-70
2021/09/08 01:18:31;;;;;;;31.10;25.77;;;18.30;78.50;;;;;;5031629;28;20034;-70
2021/09/08 01:20:57;;;;;;;32.47;26.67;;;18.30;78.80;;;;;;5018925;28;20037;-70
2021/09/08 01:23:23;;;;;;;30.65;24.42;;;18.20;79.00;;;;;;5026767;28;20049;-70
2021/09/08 01:25:49;;;;;;;34.47;27.17;;;18.20;79.00;;;;;;5028783;28;20049;-70
2021/09/08 01:28:15;;;;;;;32.90;26.25;;;18.20;79.10;;;;;;5026389;28;20037;-70
2021/09/08 01:30:41;;;;;;;30.40;25.15;;;18.10;79.30;;;;;;5029488;28;20030;-71
2021/09/08 01:33:09;;;;;;;31.70;25.00;;;18.10;79.40;;;;;;5031362;28;20044;-69
2021/09/08 01:35:35;;;;;;;32.65;26.98;;;18.10;79.50;;;;;;5024561;28;20144;-71
2021/09/08 01:38:00;;;;;;;31.08;25.73;;;18.10;79.40;;;;;;5031773;28;20120;-72
2021/09/08 01:40:26;;;;;;;32.17;25.38;;;18.10;79.50;;;;;;5022680;28;20091;-70
2021/09/08 01:42:52;;;;;;;30.13;24.73;;;18.10;79.20;;;;;;5024700;28;20045;-70
2021/09/08 01:45:17;;;;;;;30.83;25.13;;;18.10;79.40;;;;;;5024100;28;20112;-69
2021/09/08 01:47:44;;;;;;;29.00;24.88;;;18.10;79.40;;;;;;5025193;28;20068;-72
2021/09/08 01:50:11;;;;;;;31.50;26.00;;;18.10;79.50;;;;;;4997121;28;20056;-70
2021/09/08 01:52:37;;;;;;;30.17;25.27;;;18.00;79.50;;;;;;5031463;28;20033;-73
2021/09/08 01:55:08;;;;;;;33.95;27.58;;;18.00;79.60;;;;;;5009422;28;20034;-70
2021/09/08 01:57:34;;;;;;;31.13;25.85;;;18.00;79.70;;;;;;5007997;28;20042;-70
2021/09/08 02:00:00;;;;;;;29.35;25.05;;;18.00;79.80;;;;;;5007747;28;20124;-70
2021/09/08 02:02:26;;;;;;;32.45;25.92;;;18.00;80.00;;;;;;5005150;28;20499;-69
2021/09/08 02:04:52;;;;;;;32.42;26.13;;;17.90;80.10;;;;;;5005671;28;20038;-70
2021/09/08 02:07:17;;;;;;;34.30;28.50;;;17.90;80.20;;;;;;5005984;28;20034;-70
2021/09/08 02:09:43;;;;;;;32.85;27.13;;;17.80;80.30;;;;;;5026341;28;20041;-73
2021/09/08 02:12:09;;;;;;;32.08;26.45;;;17.70;80.60;;;;;;5015497;28;20046;-70
2021/09/08 02:14:34;;;;;;;33.15;26.05;;;17.70;80.80;;;;;;5005071;28;20030;-70
2021/09/08 02:17:00;;;;;;;32.53;26.80;;;17.70;80.90;;;;;;5018041;28;20037;-69
2021/09/08 02:19:26;;;;;;;33.65;26.95;;;17.60;81.00;;;;;;4999816;28;20037;-71
2021/09/08 02:21:52;;;;;;;32.50;27.02;;;17.70;81.00;;;;;;5013283;28;20045;-70
2021/09/08 02:24:17;;;;;;;30.30;26.00;;;17.60;80.80;;;;;;5007442;28;20064;-70
2021/09/08 02:26:43;;;;;;;32.83;27.42;;;17.70;80.80;;;;;;5023052;28;20037;-71
2021/09/08 02:29:12;;;;;;;32.20;25.88;;;17.60;80.80;;;;;;5025744;28;20038;-70
2021/09/08 02:31:38;;;;;;;33.35;27.35;;;17.60;81.00;;;;;;5031479;28;20030;-70
2021/09/08 02:34:04;;;;;;;35.58;28.10;;;17.60;81.00;;;;;;5012308;28;20039;-71
2021/09/08 02:36:29;;;;;;;34.90;28.15;;;17.60;81.10;;;;;;5003189;28;20464;-70
2021/09/08 02:38:55;;;;;;;34.50;28.05;;;17.60;81.00;;;;;;5006142;28;20041;-70
2021/09/08 02:41:23;;;;;;;36.38;28.08;;;17.60;81.10;;;;;;5014767;28;20410;-73
2021/09/08 02:43:50;;;;;;;37.92;28.63;;;17.60;81.10;;;;;;5018919;28;20303;-71
2021/09/08 02:46:15;;;;;;;32.65;28.98;;;17.50;81.20;;;;;;5025818;28;20401;-71
2021/09/08 02:48:41;;;;;;;36.20;27.85;;;17.50;81.40;;;;;;5021028;28;20034;-70
2021/09/08 02:51:07;;;;;;;33.45;28.98;;;17.40;81.50;;;;;;5002272;28;20065;-71
2021/09/08 02:53:33;;;;;;;35.83;29.77;;;17.40;81.70;;;;;;5001405;28;20038;-71
2021/09/08 02:55:59;;;;;;;33.97;29.20;;;17.40;81.70;;;;;;5010682;28;20034;-70
2021/09/08 02:58:25;;;;;;;35.83;29.63;;;17.30;81.90;;;;;;5017321;28;20084;-71
2021/09/08 03:00:51;;;;;;;33.10;28.05;;;17.30;82.00;;;;;;5010821;28;20034;-71
2021/09/08 03:03:18;;;;;;;35.20;29.02;;;17.20;82.20;;;;;;5038762;28;20056;-71
2021/09/08 03:05:44;;;;;;;36.35;29.25;;;17.20;82.30;;;;;;5022613;28;20569;-70
2021/09/08 03:08:10;;;;;;;33.78;29.77;;;17.10;82.30;;;;;;5032413;28;20614;-70
2021/09/08 03:10:36;;;;;;;34.25;28.95;;;17.10;82.40;;;;;;5028192;28;20042;-70
2021/09/08 03:13:02;;;;;;;36.47;30.50;;;17.10;82.50;;;;;;5028058;28;20140;-71
2021/09/08 03:15:27;;;;;;;36.78;30.88;;;17.10;82.50;;;;;;5022856;28;20036;-70
2021/09/08 03:17:53;;;;;;;41.80;32.90;;;17.10;82.70;;;;;;5028616;28;20029;-71
2021/09/08 03:20:19;;;;;;;40.85;31.63;;;17.00;83.30;;;;;;5036055;28;20037;-70
2021/09/08 03:22:44;;;;;;;37.03;30.85;;;16.90;83.60;;;;;;5033191;28;20034;-72
2021/09/08 03:25:10;;;;;;;37.03;29.88;;;16.90;83.70;;;;;;5031269;28;20128;-71
2021/09/08 03:27:36;;;;;;;38.03;29.83;;;16.90;83.80;;;;;;5025108;28;20041;-70
2021/09/08 03:30:03;;;;;;;37.53;30.58;;;16.90;83.80;;;;;;5023940;28;20440;-71
2021/09/08 03:32:28;;;;;;;40.88;31.65;;;17.00;83.60;;;;;;5013789;28;20561;-70
2021/09/08 03:34:54;;;;;;;37.22;29.83;;;16.90;83.50;;;;;;5028757;28;20128;-71
2021/09/08 03:37:20;;;;;;;37.55;29.95;;;17.00;83.40;;;;;;5023691;28;20481;-70
2021/09/08 03:39:45;;;;;;;38.03;30.92;;;16.90;83.40;;;;;;5025139;28;20037;-70
2021/09/08 03:42:11;;;;;;;36.67;29.42;;;17.00;83.30;;;;;;5026989;28;20409;-71
2021/09/08 03:44:37;;;;;;;38.15;31.42;;;16.90;83.30;;;;;;5025047;28;20034;-72
2021/09/08 03:47:03;;;;;;;39.10;30.90;;;16.90;83.30;;;;;;5026520;28;20025;-70
2021/09/08 03:49:28;;;;;;;38.72;30.48;;;16.90;83.30;;;;;;5023789;28;20042;-71
2021/09/08 03:51:54;;;;;;;37.97;31.75;;;16.90;83.30;;;;;;5021600;28;20033;-70
2021/09/08 03:54:20;;;;;;;39.13;30.98;;;16.90;83.50;;;;;;5032201;28;20091;-70
2021/09/08 03:56:46;;;;;;;37.90;30.95;;;16.90;83.60;;;;;;5023122;28;20029;-70
2021/09/08 03:59:11;;;;;;;36.75;31.52;;;16.80;83.70;;;;;;5025689;28;20049;-72
2021/09/08 04:01:37;;;;;;;37.13;31.05;;;16.80;83.70;;;;;;5023829;28;20034;-70
2021/09/08 04:04:03;;;;;;;37.40;31.35;;;16.80;83.70;;;;;;5028703;28;20046;-71
2021/09/08 04:06:29;;;;;;;40.00;31.80;;;16.70;83.80;;;;;;5024162;28;20129;-70
2021/09/08 04:08:54;;;;;;;41.03;33.05;;;16.70;83.80;;;;;;5022854;28;20369;-71
2021/09/08 04:11:20;;;;;;;37.67;31.33;;;16.70;83.90;;;;;;5029942;28;20033;-72
2021/09/08 04:13:45;;;;;;;44.08;34.60;;;16.70;83.80;;;;;;5029510;28;20429;-70
2021/09/08 04:16:11;;;;;;;42.47;33.55;;;16.60;84.00;;;;;;5021849;28;20774;-70
2021/09/08 04:18:37;;;;;;;42.90;32.83;;;16.60;83.90;;;;;;5021966;28;20053;-70
2021/09/08 04:21:03;;;;;;;40.25;32.78;;;16.60;84.10;;;;;;5022367;28;20492;-70
2021/09/08 04:23:28;;;;;;;40.42;34.03;;;16.60;84.10;;;;;;5023870;28;20513;-71
2021/09/08 04:25:54;;;;;;;39.90;32.53;;;16.60;84.30;;;;;;4996677;28;20108;-69
2021/09/08 04:28:20;;;;;;;40.85;32.13;;;16.60;84.30;;;;;;5021292;28;20421;-69
2021/09/08 04:30:45;;;;;;;39.50;32.47;;;16.50;84.30;;;;;;4995678;28;20117;-69
2021/09/08 04:33:11;;;;;;;40.30;32.67;;;16.50;84.20;;;;;;5001274;28;20038;-70
2021/09/08 04:35:39;;;;;;;42.20;33.30;;;16.50;84.20;;;;;;4998643;28;20788;-71
2021/09/08 04:38:05;;;;;;;38.92;31.83;;;16.50;84.20;;;;;;4996530;28;20465;-70
2021/09/08 04:40:31;;;;;;;41.10;31.63;;;16.50;84.30;;;;;;5002154;28;20083;-71
2021/09/08 04:42:56;;;;;;;40.90;33.60;;;16.40;84.10;;;;;;4998986;28;20037;-70
2021/09/08 04:45:22;;;;;;;43.80;33.20;;;16.40;84.20;;;;;;4995497;28;20072;-69
2021/09/08 04:47:48;;;;;;;43.97;35.00;;;16.40;84.40;;;;;;4994019;28;20109;-70
2021/09/08 04:50:14;;;;;;;44.45;34.25;;;16.40;84.40;;;;;;5003006;28;20360;-70
2021/09/08 04:52:40;;;;;;;40.00;33.08;;;16.30;84.50;;;;;;5001234;28;20496;-70
2021/09/08 04:55:07;;;;;;;43.67;32.53;;;16.30;84.60;;;;;;5004131;28;20085;-74
2021/09/08 04:57:33;;;;;;;49.20;35.88;;;16.30;84.80;;;;;;4999085;28;20129;-74
2021/09/08 04:59:58;;;;;;;40.88;33.15;;;16.30;84.70;;;;;;5000826;28;20059;-71
2021/09/08 05:02:24;;;;;;;42.33;34.47;;;16.20;84.70;;;;;;5002354;28;20048;-70
2021/09/08 05:04:50;;;;;;;45.33;33.88;;;16.30;84.70;;;;;;4999640;28;20128;-70
2021/09/08 05:07:15;;;;;;;41.25;33.10;;;16.30;84.90;;;;;;4994257;28;20062;-71
2021/09/08 05:09:41;;;;;;;47.03;35.33;;;16.20;84.80;;;;;;5004979;28;20347;-70
2021/09/08 05:12:07;;;;;;;48.83;34.75;;;16.30;84.70;;;;;;4998408;28;20038;-73
2021/09/08 05:14:32;;;;;;;42.67;32.65;;;16.30;84.60;;;;;;4996528;28;20035;-71
2021/09/08 05:16:58;;;;;;;43.88;34.05;;;16.20;84.50;;;;;;5003129;28;20393;-70
2021/09/08 05:19:24;;;;;;;41.42;34.10;;;16.20;84.60;;;;;;5005158;28;20129;-69
2021/09/08 05:21:49;;;;;;;45.10;33.30;;;16.30;84.70;;;;;;4995653;28;20041;-71
2021/09/08 05:24:15;;;;;;;43.20;33.28;;;16.30;84.70;;;;;;5002479;28;20056;-69
2021/09/08 05:26:40;;;;;;;41.45;33.75;;;16.30;84.40;;;;;;5003841;28;20072;-70
2021/09/08 05:29:06;;;;;;;42.42;32.63;;;16.40;84.40;;;;;;4996383;28;20030;-71
2021/09/08 05:31:33;;;;;;;40.20;34.25;;;16.40;84.40;;;;;;5007445;28;20461;-71
2021/09/08 05:33:58;;;;;;;44.42;33.55;;;16.40;84.20;;;;;;5007447;28;20037;-70
2021/09/08 05:36:24;;;;;;;47.75;34.28;;;16.50;84.00;;;;;;5007603;28;20380;-70
2021/09/08 05:38:50;;;;;;;43.85;33.42;;;16.50;84.00;;;;;;5023362;28;20131;-70
2021/09/08 05:41:16;;;;;;;49.30;34.83;;;16.50;83.80;;;;;;5017842;28;20575;-71
2021/09/08 05:43:42;;;;;;;42.08;33.10;;;16.50;84.00;;;;;;5026159;28;20056;-71
2021/09/08 05:46:08;;;;;;;45.22;33.90;;;16.50;83.90;;;;;;5007549;28;20034;-72
2021/09/08 05:48:33;;;;;;;45.85;34.42;;;16.50;83.90;;;;;;4998905;28;20030;-70
2021/09/08 05:51:00;;;;;;;43.63;34.47;;;16.60;83.80;;;;;;5020699;28;20046;-71
2021/09/08 05:53:26;;;;;;;43.47;34.58;;;16.60;83.90;;;;;;5001133;28;20045;-71
2021/09/08 05:55:53;;;;;;;41.38;33.58;;;16.60;83.80;;;;;;5003351;28;20385;-71
2021/09/08 05:58:19;;;;;;;47.08;35.80;;;16.60;83.80;;;;;;5024507;28;21047;-71
2021/09/08 06:00:45;;;;;;;47.80;34.53;;;16.60;83.80;;;;;;5023811;28;20037;-71
2021/09/08 06:03:10;;;;;;;41.55;34.15;;;16.70;83.70;;;;;;5026265;28;20044;-71
2021/09/08 06:05:36;;;;;;;43.10;35.50;;;16.70;84.00;;;;;;5020056;28;20029;-71
2021/09/08 06:08:02;;;;;;;41.95;33.75;;;16.70;84.10;;;;;;5004212;28;20029;-75
2021/09/08 06:10:28;;;;;;;43.10;33.60;;;16.70;84.10;;;;;;5004823;28;20038;-69
2021/09/08 06:12:53;;;;;;;43.53;34.83;;;16.80;84.00;;;;;;5006330;28;20041;-70
2021/09/08 06:15:20;;;;;;;42.33;32.08;;;16.80;83.70;;;;;;5003177;28;20478;-70
2021/09/08 06:17:46;;;;;;;38.97;32.53;;;16.90;83.90;;;;;;5005722;28;20026;-74
2021/09/08 06:20:12;;;;;;;45.35;34.35;;;16.90;83.80;;;;;;5017265;28;20387;-69
2021/09/08 06:22:39;;;;;;;40.00;31.80;;;17.10;83.50;;;;;;5021602;28;20057;-69
2021/09/08 06:25:05;;;;;;;41.30;31.17;;;17.20;83.40;;;;;;5026711;28;20032;-71
2021/09/08 06:27:31;;;;;;;36.85;30.50;;;17.20;83.10;;;;;;5022820;28;20128;-69
2021/09/08 06:29:57;;;;;;;38.17;31.10;;;17.30;83.00;;;;;;5024376;28;20164;-69
2021/09/08 06:32:24;;;;;;;40.33;29.75;;;17.40;82.60;;;;;;5022871;28;20046;-72
2021/09/08 06:34:50;;;;;;;42.55;31.25;;;17.50;82.60;;;;;;5021651;28;20080;-68
2021/09/08 06:37:16;;;;;;;35.97;30.02;;;17.60;82.30;;;;;;5017854;28;20037;-69
2021/09/08 06:39:42;;;;;;;36.47;29.90;;;17.60;82.20;;;;;;5021244;28;20542;-76
2021/09/08 06:42:07;;;;;;;39.28;30.05;;;17.70;82.00;;;;;;5026614;28;20041;-74
2021/09/08 06:44:33;;;;;;;37.17;29.75;;;17.80;81.80;;;;;;5030736;28;20120;-76
2021/09/08 06:46:59;;;;;;;34.45;28.55;;;17.90;81.60;;;;;;5028891;28;20033;-69
2021/09/08 06:49:24;;;;;;;39.45;29.92;;;18.00;81.30;;;;;;5029976;28;20141;-70
2021/09/08 06:51:50;;;;;;;40.53;31.33;;;18.10;81.10;;;;;;5031055;28;20072;-68
2021/09/08 06:54:16;;;;;;;39.50;28.55;;;18.10;80.80;;;;;;5031659;28;20502;-68
2021/09/08 06:56:42;;;;;;;37.47;28.70;;;18.30;81.00;;;;;;5034018;28;20034;-70
2021/09/08 06:59:08;;;;;;;36.25;28.15;;;18.40;80.60;;;;;;5032979;28;20147;-68
2021/09/08 07:01:34;;;;;;;34.58;29.35;;;18.60;80.00;;;;;;5002789;28;20117;-70
2021/09/08 07:04:00;;;;;;;36.38;28.42;;;18.70;79.80;;;;;;5000149;28;20394;-68
2021/09/08 07:06:26;;;;;;;35.47;27.92;;;18.90;79.10;;;;;;5013108;28;20046;-67
2021/09/08 07:08:52;;;;;;;35.90;26.95;;;19.00;78.20;;;;;;5013816;28;20049;-69
2021/09/08 07:11:19;;;;;;;34.90;27.02;;;19.00;78.20;;;;;;5020790;28;20477;-68
2021/09/08 07:13:45;;;;;;;32.47;26.60;;;19.20;77.80;;;;;;5025240;28;20071;-69
2021/09/08 07:16:11;;;;;;;34.20;26.02;;;19.30;77.10;;;;;;5017447;28;20456;-67
2021/09/08 07:18:36;;;;;;;36.47;26.73;;;19.50;77.20;;;;;;5026983;28;20177;-68
2021/09/08 07:21:03;;;;;;;31.58;26.10;;;19.60;76.70;;;;;;5008476;28;20026;-69
2021/09/08 07:23:29;;;;;;;30.63;24.83;;;19.80;76.30;;;;;;5020075;28;20050;-69
2021/09/08 07:25:55;;;;;;;29.35;25.27;;;20.00;75.50;;;;;;5006245;28;20042;-68
2021/09/08 07:28:21;;;;;;;26.38;23.33;;;20.00;75.30;;;;;;5007986;28;20056;-68
2021/09/08 07:30:53;;;;;;;27.92;23.75;;;20.20;74.70;;;;;;5013000;28;20033;-70
2021/09/08 07:33:19;;;;;;;30.23;23.85;;;20.50;73.80;;;;;;5012665;28;20064;-68
2021/09/08 07:35:47;;;;;;;27.73;22.67;;;20.60;73.10;;;;;;5028562;28;20041;-68
2021/09/08 07:38:13;;;;;;;28.73;21.73;;;20.80;73.00;;;;;;5028319;28;20373;-69
2021/09/08 07:40:39;;;;;;;26.20;20.95;;;21.10;72.20;;;;;;5026918;28;20033;-70
2021/09/08 07:43:05;;;;;;;35.13;23.75;;;21.30;71.50;;;;;;5024927;28;20029;-71
2021/09/08 07:45:30;;;;;;;31.60;23.25;;;21.40;71.10;;;;;;5028377;28;20037;-70
2021/09/08 07:47:56;;;;;;;35.22;22.52;;;21.50;70.50;;;;;;5026581;28;20040;-72
2021/09/08 07:50:22;;;;;;;29.60;21.73;;;21.60;69.70;;;;;;5026956;28;20141;-71
2021/09/08 07:52:47;;;;;;;28.88;20.92;;;21.90;69.60;;;;;;5026494;28;20095;-71
2021/09/08 07:55:13;;;;;;;26.60;21.08;;;22.10;69.40;;;;;;5024548;28;20488;-70
2021/09/08 07:57:39;;;;;;;28.98;20.42;;;22.20;67.50;;;;;;5024683;28;20037;-70
2021/09/08 08:00:05;;;;;;;25.98;20.10;;;22.40;67.00;;;;;;5024319;28;20099;-73
2021/09/08 08:02:40;;;;;;;27.10;19.92;;;22.60;66.40;;;;;;5030198;28;20071;-69
2021/09/08 08:05:06;;;;;;;24.45;19.65;;;22.70;66.30;;;;;;5026817;28;20048;-71
2021/09/08 08:07:32;;;;;;;26.55;19.95;;;22.90;66.00;;;;;;5025927;28;20120;-72
2021/09/08 08:09:57;;;;;;;23.60;18.85;;;23.10;65.00;;;;;;5030210;28;20545;-71
2021/09/08 08:12:23;;;;;;;23.60;18.52;;;23.10;64.60;;;;;;5026363;28;20045;-72
2021/09/08 08:14:49;;;;;;;25.83;19.15;;;23.40;64.20;;;;;;5030266;28;20030;-73
2021/09/08 08:17:14;;;;;;;26.00;18.55;;;23.40;63.20;;;;;;5025429;28;20504;-72
2021/09/08 08:19:40;;;;;;;28.75;18.98;;;23.60;63.70;;;;;;5028271;28;20049;-72
2021/09/08 08:22:06;;;;;;;22.23;17.65;;;23.80;63.00;;;;;;5031366;28;20076;-73
2021/09/08 08:24:32;;;;;;;21.48;17.65;;;23.80;61.80;;;;;;5023883;28;20508;-70
2021/09/08 08:27:00;;;;;;;22.98;18.40;;;23.90;62.10;;;;;;5024889;28;20053;-71
2021/09/08 08:29:26;;;;;;;21.75;16.92;;;24.10;61.70;;;;;;5019893;28;20030;-72
2021/09/08 08:31:51;;;;;;;21.35;16.33;;;24.30;61.60;;;;;;5023351;28;20075;-72
2021/09/08 08:34:17;;;;;;;24.23;17.50;;;24.60;61.00;;;;;;5024588;28;21419;-71
2021/09/08 08:36:43;;;;;;;20.30;16.02;;;24.80;59.50;;;;;;5025000;28;20389;-76
2021/09/08 08:39:09;;;;;;;20.52;16.48;;;25.00;59.60;;;;;;5024644;28;20042;-72
2021/09/08 08:41:35;;;;;;;21.52;15.85;;;25.00;57.80;;;;;;5026682;28;20433;-72
2021/09/08 08:44:03;;;;;;;18.20;14.95;;;25.10;57.70;;;;;;5021936;28;20044;-73
2021/09/08 08:46:29;;;;;;;18.08;15.25;;;25.30;57.60;;;;;;5024290;28;20064;-72
2021/09/08 08:48:54;;;;;;;20.15;15.48;;;25.40;57.00;;;;;;5026237;28;20389;-72
2021/09/08 08:51:21;;;;;;;17.33;14.43;;;25.50;56.40;;;;;;5026645;28;20081;-73
2021/09/08 08:53:49;;;;;;;17.67;14.45;;;25.60;57.00;;;;;;5024369;28;20048;-73
2021/09/08 08:56:15;;;;;;;18.30;13.93;;;25.60;55.10;;;;;;5028212;28;20037;-72
2021/09/08 08:58:41;;;;;;;16.38;13.20;;;25.70;56.20;;;;;;5027099;28;20479;-74
2021/09/08 09:01:17;;;;;;;17.27;13.93;;;25.70;54.40;;;;;;5025055;28;20113;-75
2021/09/08 09:03:42;;;;;;;15.63;13.10;;;25.80;54.10;;;;;;5023696;28;20508;-73
2021/09/08 09:06:08;;;;;;;17.98;13.02;;;26.00;54.40;;;;;;5026152;28;20021;-75
2021/09/08 09:08:35;;;;;;;16.75;12.30;;;26.30;53.80;;;;;;5024667;28;20041;-73
2021/09/08 09:11:02;;;;;;;14.80;11.80;;;26.50;53.40;;;;;;5021276;28;20041;-73
2021/09/08 09:13:32;;;;;;;18.10;11.40;;;26.40;53.30;;;;;;5025364;28;20033;-72
2021/09/08 09:16:09;;;;;;;16.15;12.35;;;26.70;52.50;;;;;;5017078;28;20405;-73
2021/09/08 09:18:43;;;;;;;16.00;11.15;;;26.60;51.30;;;;;;5023061;28;20037;-72
2021/09/08 09:21:14;;;;;;;13.38;10.93;;;26.70;51.10;;;;;;5019796;28;20033;-73
2021/09/08 09:23:48;;;;;;;13.02;10.63;;;26.90;51.70;;;;;;5027806;28;20116;-72
2021/09/08 09:26:20;;;;;;;14.40;11.90;;;27.10;51.30;;;;;;5022296;28;20505;-73
2021/09/08 09:28:46;;;;;;;16.05;11.10;;;27.40;50.30;;;;;;5028550;28;20123;-73
2021/09/08 09:31:13;;;;;;;16.73;11.43;;;27.40;47.30;;;;;;5020355;28;20129;-72
2021/09/08 09:33:44;;;;;;;14.70;10.63;;;27.40;48.00;;;;;;5018381;28;20050;-72
2021/09/08 09:36:21;;;;;;;13.75;9.43;;;27.50;47.90;;;;;;5024182;28;20037;-72
2021/09/08 09:38:49;;;;;;;15.43;10.55;;;27.70;47.90;;;;;;5018813;28;20044;-71
2021/09/08 09:41:27;;;;;;;13.85;10.23;;;28.10;46.90;;;;;;5020168;28;20041;-71
2021/09/08 09:43:53;;;;;;;13.48;9.25;;;28.00;44.80;;;;;;5021435;28;20128;-68
2021/09/08 09:46:20;;;;;;;17.45;10.00;;;27.90;45.70;;;;;;5022798;28;20458;-68
2021/09/08 09:48:48;;;;;;;14.07;9.68;;;28.00;44.60;;;;;;5027714;28;20037;-68
2021/09/08 09:51:14;;;;;;;14.23;9.68;;;27.80;44.50;;;;;;5024656;28;20076;-69
2021/09/08 09:53:41;;;;;;;12.95;8.73;;;28.00;44.70;;;;;;5023835;28;20545;-71
2021/09/08 09:56:07;;;;;;;15.85;9.77;;;28.00;45.10;;;;;;5024482;28;20025;-70
2021/09/08 09:58:36;;;;;;;16.83;8.80;;;28.10;44.30;;;;;;5019266;28;20033;-67
2021/09/08 10:01:05;;;;;;;13.05;9.65;;;28.20;42.30;;;;;;5026700;28;20037;-68
2021/09/08 10:03:31;;;;;;;11.52;8.98;;;28.10;43.20;;;;;;5018762;28;20064;-68
2021/09/08 10:05:59;;;;;;;15.85;9.63;;;28.40;43.30;;;;;;5020226;28;20076;-71
2021/09/08 10:08:27;;;;;;;13.32;9.30;;;28.50;43.90;;;;;;5012577;28;20069;-68
2021/09/08 10:10:55;;;;;;;12.07;8.90;;;28.60;43.60;;;;;;5004615;28;20069;-69
2021/09/08 10:13:26;;;;;;;15.75;9.52;;;28.70;44.00;;;;;;5024645;28;20133;-68
2021/09/08 10:15:53;;;;;;;12.20;9.25;;;28.90;42.80;;;;;;5015641;28;20038;-68
2021/09/08 10:18:24;;;;;;;12.73;9.15;;;28.80;41.80;;;;;;5023086;28;20033;-68
2021/09/08 10:21:11;;;;;;;17.17;9.18;;;28.60;42.60;;;;;;5022912;28;20057;-68
2021/09/08 10:23:43;;;;;;;16.52;9.70;;;28.60;43.10;;;;;;5015842;28;20049;-69
2021/09/08 10:26:12;;;;;;;12.70;9.07;;;28.80;42.50;;;;;;5016175;28;20475;-68
2021/09/08 10:28:39;;;;;;;11.30;8.70;;;28.80;41.80;;;;;;5023547;28;20485;-69
2021/09/08 10:31:06;;;;;;;11.77;9.32;;;28.60;42.40;;;;;;5010822;28;20097;-68
2021/09/08 10:33:32;;;;;;;12.57;9.27;;;28.50;42.60;;;;;;5008404;28;20034;-67
2021/09/08 10:35:58;;;;;;;15.98;9.55;;;28.50;43.50;;;;;;5008562;28;20044;-72
2021/09/08 10:38:25;;;;;;;12.82;8.50;;;28.70;42.80;;;;;;5029482;28;20088;-69
2021/09/08 10:40:51;;;;;;;12.98;8.32;;;28.80;41.70;;;;;;5022412;28;20045;-68
2021/09/08 10:43:56;;;;;;;11.68;8.57;;;28.90;41.90;;;;;;5021864;28;20388;-68
2021/09/08 10:46:49;;;;;;;12.90;8.82;;;29.20;40.40;;;;;;5013319;28;20452;-68
2021/09/08 10:49:36;;;;;;;12.02;9.07;;;29.40;41.50;;;;;;5017617;28;20041;-68
2021/09/08 10:52:13;;;;;;;11.25;8.90;;;29.50;41.10;;;;;;5041405;28;20028;-70
2021/09/08 10:54:54;;;;;;;13.55;9.05;;;29.60;40.90;;;;;;5012536;28;20042;-69
2021/09/08 10:57:41;;;;;;;10.48;8.30;;;29.80;40.70;;;;;;5022443;28;20088;-68
2021/09/08 11:00:11;;;;;;;12.60;8.07;;;29.60;38.90;;;;;;5019802;28;20473;-72
2021/09/08 11:02:40;;;;;;;11.95;8.27;;;29.60;39.10;;;;;;5022372;28;20124;-71
2021/09/08 11:05:06;;;;;;;13.02;8.30;;;29.70;39.30;;;;;;5008697;28;20113;-72
2021/09/08 11:07:32;;;;;;;11.73;8.07;;;29.80;37.70;;;;;;5024850;28;20461;-68
2021/09/08 11:09:58;;;;;;;10.77;8.55;;;29.70;38.70;;;;;;5022110;28;20033;-71
2021/09/08 11:12:50;;;;;;;13.07;8.48;;;29.80;38.80;;;;;;5011916;28;20030;-70
2021/09/08 11:15:20;;;;;;;12.02;8.75;;;29.70;38.60;;;;;;5001054;28;20030;-69
2021/09/08 11:17:53;;;;;;;11.60;8.48;;;29.70;38.50;;;;;;5008774;28;20029;-70
2021/09/08 11:20:19;;;;;;;13.63;8.60;;;29.60;38.90;;;;;;5022781;28;20052;-70
2021/09/08 11:23:04;;;;;;;14.35;8.30;;;29.80;39.60;;;;;;5023427;28;20380;-68
2021/09/08 11:25:32;;;;;;;11.13;8.40;;;29.90;38.30;;;;;;5008219;28;20492;-69
2021/09/08 11:27:58;;;;;;;11.88;8.40;;;29.60;38.60;;;;;;5015921;28;20128;-68
2021/09/08 11:30:29;;;;;;;11.88;8.63;;;29.70;39.30;;;;;;5019155;28;20124;-71
2021/09/08 11:32:58;;;;;;;13.38;7.72;;;29.80;39.30;;;;;;5018252;28;20068;-69
2021/09/08 11:35:38;;;;;;;11.20;7.15;;;29.80;39.10;;;;;;5016380;28;20036;-71
2021/09/08 11:38:07;;;;;;;11.07;7.90;;;30.00;38.00;;;;;;5015661;28;20030;-70
2021/09/08 11:40:34;;;;;;;11.35;7.85;;;30.10;37.70;;;;;;5012793;28;20556;-69
2021/09/08 11:42:59;;;;;;;11.20;7.50;;;30.10;38.40;;;;;;5013326;28;20521;-69
2021/09/08 11:45:27;;;;;;;15.43;8.60;;;30.30;38.10;;;;;;5022397;28;20211;-70
2021/09/08 11:47:52;;;;;;;11.32;8.13;;;30.30;38.50;;;;;;5019088;28;20030;-69
2021/09/08 11:50:18;;;;;;;12.15;7.78;;;30.40;38.10;;;;;;5021486;28;20029;-70
2021/09/08 11:52:45;;;;;;;11.15;8.32;;;30.40;37.90;;;;;;5019649;28;20476;-69
2021/09/08 11:55:28;;;;;;;11.60;7.88;;;30.20;38.30;;;;;;5020076;28;20046;-73
2021/09/08 11:57:54;;;;;;;12.18;7.75;;;30.30;37.40;;;;;;5023193;28;20132;-71
2021/09/08 12:00:19;;;;;;;11.30;8.07;;;30.20;37.90;;;;;;5017284;28;20042;-69
2021/09/08 12:02:45;;;;;;;11.90;8.30;;;30.40;37.50;;;;;;5020063;28;20040;-69
2021/09/08 12:05:23;;;;;;;13.30;7.57;;;30.30;38.10;;;;;;5016884;28;20046;-68
2021/09/08 12:07:58;;;;;;;9.85;7.75;;;30.30;37.70;;;;;;5018508;28;20035;-72
2021/09/08 12:10:34;;;;;;;10.38;7.60;;;30.40;38.30;;;;;;5017033;28;20136;-69
2021/09/08 12:13:00;;;;;;;10.65;7.45;;;30.30;37.70;;;;;;5019447;28;20045;-70
2021/09/08 12:15:33;;;;;;;10.48;7.88;;;30.40;38.20;;;;;;5018505;28;20526;-71
2021/09/08 12:18:18;;;;;;;11.00;7.30;;;30.50;36.90;;;;;;5015474;28;20030;-70
2021/09/08 12:20:44;;;;;;;11.00;7.93;;;30.40;36.90;;;;;;5021229;28;20477;-69
2021/09/08 12:23:32;;;;;;;10.80;7.43;;;30.40;37.70;;;;;;5019601;28;20072;-68
2021/09/08 12:26:06;;;;;;;9.50;6.72;;;30.50;36.30;;;;;;5019529;28;20045;-69
2021/09/08 12:28:32;;;;;;;9.70;6.90;;;30.70;36.50;;;;;;5014502;28;20034;-69